sensor_id;sensor_type;location;lat;lon;timestamp;P1;P2;P0
51320;PMS5003;38732;49.556;6.286;2023-04-24T00:02:08;2.00;2.00;1.00
51320;PMS5003;38732;49.556;6.286;2023-04-24T00:04:37;3.50;3.50;1.00
51320;PMS5003;38732;49.556;6.286;2023-04-24T00:07:06;2.00;2.00;1.00
51320;PMS5003;38732;49.556;6.286;2023-04-24T00:09:34;2.00;2.00;1.00
51320;PMS5003;38732;49.556;6.286;2023-04-24T00:12:02;4.00;4.00;3.00
51320;PMS5003;38732;49.556;6.286;2023-04-24T00:14:31;3.00;3.00;2.00
51320;PMS5003;38732;49.556;6.286;2023-04-24T00:16:59;4.25;4.25;2.00
51320;PMS5003;38732;49.556;6.286;2023-04-24T00:19:27;4.00;4.00;1.75
51320;PMS5003;38732;49.556;6.286;2023-04-24T00:21:56;4.75;4.75;2.00
51320;PMS5003;38732;49.556;6.286;2023-04-24T00:24:24;7.50;7.50;4.25
51320;PMS5003;38732;49.556;6.286;2023-04-24T00:26:52;6.00;6.00;2.00
51320;PMS5003;38732;49.556;6.286;2023-04-24T00:29:20;4.50;4.50;2.00
51320;PMS5003;38732;49.556;6.286;2023-04-24T00:31:49;5.50;4.00;4.00
51320;PMS5003;38732;49.556;6.286;2023-04-24T00:34:17;5.25;4.25;2.00
51320;PMS5003;38732;49.556;6.286;2023-04-24T00:36:45;7.00;7.00;4.25
51320;PMS5003;38732;49.556;6.286;2023-04-24T00:39:13;9.25;9.25;7.00
51320;PMS5003;38732;49.556;6.286;2023-04-24T00:41:42;8.75;8.75;5.00
51320;PMS5003;38732;49.556;6.286;2023-04-24T00:44:10;8.50;7.00;4.25
51320;PMS5003;38732;49.556;6.286;2023-04-24T00:46:39;12.00;10.00;6.50
51320;PMS5003;38732;49.556;6.286;2023-04-24T00:49:07;7.00;6.50;3.50
51320;PMS5003;38732;49.556;6.286;2023-04-24T00:51:35;9.00;9.00;6.50
51320;PMS5003;38732;49.556;6.286;2023-04-24T00:54:04;15.25;13.25;6.25
51320;PMS5003;38732;49.556;6.286;2023-04-24T00:56:32;10.00;10.00;6.50
51320;PMS5003;38732;49.556;6.286;2023-04-24T00:59:00;8.25;8.25;5.00
51320;PMS5003;38732;49.556;6.286;2023-04-24T01:01:29;10.00;8.75;6.25
51320;PMS5003;38732;49.556;6.286;2023-04-24T01:03:57;14.50;13.00;8.00
51320;PMS5003;38732;49.556;6.286;2023-04-24T01:06:27;9.50;9.50;5.25
51320;PMS5003;38732;49.556;6.286;2023-04-24T01:08:57;11.40;10.40;7.00
51320;PMS5003;38732;49.556;6.286;2023-04-24T01:11:26;13.40;11.00;7.00
51320;PMS5003;38732;49.556;6.286;2023-04-24T01:13:54;10.50;10.25;7.00
51320;PMS5003;38732;49.556;6.286;2023-04-24T01:16:23;12.50;11.00;6.00
51320;PMS5003;38732;49.556;6.286;2023-04-24T01:18:51;12.00;12.00;6.00
51320;PMS5003;38732;49.556;6.286;2023-04-24T01:21:19;13.75;12.50;8.00
51320;PMS5003;38732;49.556;6.286;2023-04-24T01:23:49;14.80;13.60;10.00
51320;PMS5003;38732;49.556;6.286;2023-04-24T01:26:18;15.40;14.00;9.00
51320;PMS5003;38732;49.556;6.286;2023-04-24T01:28:47;16.25;11.75;7.00
51320;PMS5003;38732;49.556;6.286;2023-04-24T01:31:15;11.25;11.25;6.75
51320;PMS5003;38732;49.556;6.286;2023-04-24T01:33:44;17.50;13.50;8.25
51320;PMS5003;38732;49.556;6.286;2023-04-24T01:36:13;16.25;14.00;10.25
51320;PMS5003;38732;49.556;6.286;2023-04-24T01:38:41;22.00;18.25;11.50
51320;PMS5003;38732;49.556;6.286;2023-04-24T01:41:10;15.50;14.50;8.25
51320;PMS5003;38732;49.556;6.286;2023-04-24T01:43:38;14.00;13.50;8.25
51320;PMS5003;38732;49.556;6.286;2023-04-24T01:46:07;20.00;17.00;9.50
51320;PMS5003;38732;49.556;6.286;2023-04-24T01:48:35;15.00;15.00;8.00
51320;PMS5003;38732;49.556;6.286;2023-04-24T01:51:04;17.75;17.75;10.50
51320;PMS5003;38732;49.556;6.286;2023-04-24T01:53:32;14.50;14.50;8.75
51320;PMS5003;38732;49.556;6.286;2023-04-24T01:56:00;15.50;15.00;10.00
51320;PMS5003;38732;49.556;6.286;2023-04-24T01:58:29;17.25;16.75;9.50
51320;PMS5003;38732;49.556;6.286;2023-04-24T02:00:57;17.00;16.75;10.75
51320;PMS5003;38732;49.556;6.286;2023-04-24T02:03:26;22.00;16.75;11.00
51320;PMS5003;38732;49.556;6.286;2023-04-24T02:05:54;21.40;20.60;11.20
51320;PMS5003;38732;49.556;6.286;2023-04-24T02:08:23;18.00;16.75;10.00
51320;PMS5003;38732;49.556;6.286;2023-04-24T02:10:51;18.50;17.50;10.00
51320;PMS5003;38732;49.556;6.286;2023-04-24T02:13:19;21.75;18.50;10.50
51320;PMS5003;38732;49.556;6.286;2023-04-24T02:15:47;23.25;23.25;13.00
51320;PMS5003;38732;49.556;6.286;2023-04-24T02:18:15;21.25;20.25;12.00
51320;PMS5003;38732;49.556;6.286;2023-04-24T02:20:44;22.00;21.75;13.00
51320;PMS5003;38732;49.556;6.286;2023-04-24T02:23:12;23.25;18.00;6.00
51320;PMS5003;38732;49.556;6.286;2023-04-24T02:25:40;19.25;19.25;12.75
51320;PMS5003;38732;49.556;6.286;2023-04-24T02:28:08;20.75;18.50;12.00
51320;PMS5003;38732;49.556;6.286;2023-04-24T02:30:36;23.25;22.50;12.00
51320;PMS5003;38732;49.556;6.286;2023-04-24T02:33:05;24.00;19.50;12.00
51320;PMS5003;38732;49.556;6.286;2023-04-24T02:35:33;16.25;16.25;11.50
51320;PMS5003;38732;49.556;6.286;2023-04-24T02:38:01;13.75;12.25;8.00
51320;PMS5003;38732;49.556;6.286;2023-04-24T02:40:29;18.25;18.25;12.00
51320;PMS5003;38732;49.556;6.286;2023-04-24T02:42:58;17.25;16.50;10.00
51320;PMS5003;38732;49.556;6.286;2023-04-24T02:45:26;22.75;20.25;9.00
51320;PMS5003;38732;49.556;6.286;2023-04-24T02:47:54;22.00;20.00;11.50
51320;PMS5003;38732;49.556;6.286;2023-04-24T02:50:22;24.00;23.75;14.50
51320;PMS5003;38732;49.556;6.286;2023-04-24T02:52:50;23.25;22.00;11.50
51320;PMS5003;38732;49.556;6.286;2023-04-24T02:55:19;16.50;13.75;8.00
51320;PMS5003;38732;49.556;6.286;2023-04-24T02:57:47;32.25;23.75;11.25
51320;PMS5003;38732;49.556;6.286;2023-04-24T03:00:15;19.25;19.25;12.25
51320;PMS5003;38732;49.556;6.286;2023-04-24T03:02:44;27.00;22.00;13.25
51320;PMS5003;38732;49.556;6.286;2023-04-24T03:05:13;27.40;24.40;16.80
51320;PMS5003;38732;49.556;6.286;2023-04-24T03:07:41;29.25;25.00;14.00
51320;PMS5003;38732;49.556;6.286;2023-04-24T03:10:09;21.75;19.25;11.75
51320;PMS5003;38732;49.556;6.286;2023-04-24T03:12:38;26.25;24.25;15.75
51320;PMS5003;38732;49.556;6.286;2023-04-24T03:15:06;14.75;14.25;8.00
51320;PMS5003;38732;49.556;6.286;2023-04-24T03:17:35;23.00;22.75;14.25
51320;PMS5003;38732;49.556;6.286;2023-04-24T03:20:04;21.00;20.00;10.00
51320;PMS5003;38732;49.556;6.286;2023-04-24T03:22:33;25.40;24.00;14.00
51320;PMS5003;38732;49.556;6.286;2023-04-24T03:25:01;20.75;17.00;8.00
51320;PMS5003;38732;49.556;6.286;2023-04-24T03:27:30;27.50;26.50;15.25
51320;PMS5003;38732;49.556;6.286;2023-04-24T03:29:58;23.00;21.75;12.50
51320;PMS5003;38732;49.556;6.286;2023-04-24T03:32:26;24.00;22.75;13.00
51320;PMS5003;38732;49.556;6.286;2023-04-24T03:34:54;26.50;22.50;13.75
51320;PMS5003;38732;49.556;6.286;2023-04-24T03:37:22;21.50;19.75;12.00
51320;PMS5003;38732;49.556;6.286;2023-04-24T03:39:51;21.00;20.00;11.25
51320;PMS5003;38732;49.556;6.286;2023-04-24T03:42:19;20.25;18.00;11.50
51320;PMS5003;38732;49.556;6.286;2023-04-24T03:44:47;24.50;20.00;10.50
51320;PMS5003;38732;49.556;6.286;2023-04-24T03:47:15;19.25;18.00;10.50
51320;PMS5003;38732;49.556;6.286;2023-04-24T03:49:43;26.25;23.25;13.25
51320;PMS5003;38732;49.556;6.286;2023-04-24T03:52:12;22.00;20.25;13.50
51320;PMS5003;38732;49.556;6.286;2023-04-24T03:54:40;19.75;18.00;11.00
51320;PMS5003;38732;49.556;6.286;2023-04-24T03:57:08;19.00;19.00;12.25
51320;PMS5003;38732;49.556;6.286;2023-04-24T03:59:36;21.25;20.00;11.00
51320;PMS5003;38732;49.556;6.286;2023-04-24T04:02:04;25.00;17.25;13.00
51320;PMS5003;38732;49.556;6.286;2023-04-24T04:04:33;24.00;20.25;12.00
51320;PMS5003;38732;49.556;6.286;2023-04-24T04:07:01;27.00;22.00;12.25
51320;PMS5003;38732;49.556;6.286;2023-04-24T04:09:29;22.75;18.00;12.75
51320;PMS5003;38732;49.556;6.286;2023-04-24T04:11:57;22.50;20.25;12.25
51320;PMS5003;38732;49.556;6.286;2023-04-24T04:14:26;16.50;16.50;9.75
51320;PMS5003;38732;49.556;6.286;2023-04-24T04:16:55;20.40;18.60;13.00
51320;PMS5003;38732;49.556;6.286;2023-04-24T04:19:23;18.00;18.00;10.50
51320;PMS5003;38732;49.556;6.286;2023-04-24T04:21:51;24.25;21.75;12.25
51320;PMS5003;38732;49.556;6.286;2023-04-24T04:24:19;19.75;16.00;11.50
51320;PMS5003;38732;49.556;6.286;2023-04-24T04:26:48;20.75;19.50;10.50
51320;PMS5003;38732;49.556;6.286;2023-04-24T04:29:16;20.00;18.75;12.50
51320;PMS5003;38732;49.556;6.286;2023-04-24T04:31:45;19.40;19.00;12.60
51320;PMS5003;38732;49.556;6.286;2023-04-24T04:34:13;19.50;18.00;10.00
51320;PMS5003;38732;49.556;6.286;2023-04-24T04:36:41;21.75;18.50;10.00
51320;PMS5003;38732;49.556;6.286;2023-04-24T04:39:10;18.25;16.75;11.00
51320;PMS5003;38732;49.556;6.286;2023-04-24T04:41:38;17.50;17.50;11.00
51320;PMS5003;38732;49.556;6.286;2023-04-24T04:44:06;23.50;21.25;12.00
51320;PMS5003;38732;49.556;6.286;2023-04-24T04:46:35;16.00;13.50;9.75
51320;PMS5003;38732;49.556;6.286;2023-04-24T04:49:03;20.50;17.25;9.00
51320;PMS5003;38732;49.556;6.286;2023-04-24T04:51:31;13.75;13.75;9.50
51320;PMS5003;38732;49.556;6.286;2023-04-24T04:53:59;16.25;14.00;11.00
51320;PMS5003;38732;49.556;6.286;2023-04-24T04:56:27;14.50;14.00;9.00
51320;PMS5003;38732;49.556;6.286;2023-04-24T04:58:55;18.50;18.25;11.50
51320;PMS5003;38732;49.556;6.286;2023-04-24T05:01:24;16.25;12.75;9.75
51320;PMS5003;38732;49.556;6.286;2023-04-24T05:03:52;12.75;9.00;6.00
51320;PMS5003;38732;49.556;6.286;2023-04-24T05:06:20;17.00;16.50;9.50
51320;PMS5003;38732;49.556;6.286;2023-04-24T05:08:48;16.00;16.00;10.00
51320;PMS5003;38732;49.556;6.286;2023-04-24T05:11:16;12.00;10.00;4.00
51320;PMS5003;38732;49.556;6.286;2023-04-24T05:13:45;21.75;14.75;9.50
51320;PMS5003;38732;49.556;6.286;2023-04-24T05:16:13;17.25;13.50;9.00
51320;PMS5003;38732;49.556;6.286;2023-04-24T05:18:41;15.75;15.75;9.00
51320;PMS5003;38732;49.556;6.286;2023-04-24T05:21:09;15.75;15.75;8.75
51320;PMS5003;38732;49.556;6.286;2023-04-24T05:23:37;16.50;16.00;9.25
51320;PMS5003;38732;49.556;6.286;2023-04-24T05:26:06;16.25;14.00;8.25
51320;PMS5003;38732;49.556;6.286;2023-04-24T05:28:34;15.50;15.50;8.50
51320;PMS5003;38732;49.556;6.286;2023-04-24T05:31:02;14.50;14.50;9.00
51320;PMS5003;38732;49.556;6.286;2023-04-24T05:33:31;18.25;15.25;8.50
51320;PMS5003;38732;49.556;6.286;2023-04-24T05:35:59;19.25;17.25;10.00
51320;PMS5003;38732;49.556;6.286;2023-04-24T05:38:27;16.00;14.00;10.00
51320;PMS5003;38732;49.556;6.286;2023-04-24T05:40:55;19.00;18.25;10.00
51320;PMS5003;38732;49.556;6.286;2023-04-24T05:43:23;10.00;10.00;6.00
51320;PMS5003;38732;49.556;6.286;2023-04-24T05:45:52;13.75;13.00;10.00
51320;PMS5003;38732;49.556;6.286;2023-04-24T05:48:20;18.50;16.00;9.75
51320;PMS5003;38732;49.556;6.286;2023-04-24T05:50:48;7.75;5.50;4.50
51320;PMS5003;38732;49.556;6.286;2023-04-24T05:53:17;17.75;14.75;9.25
51320;PMS5003;38732;49.556;6.286;2023-04-24T05:55:45;17.00;15.25;9.00
51320;PMS5003;38732;49.556;6.286;2023-04-24T05:58:15;12.00;11.60;5.80
51320;PMS5003;38732;49.556;6.286;2023-04-24T06:00:43;11.00;11.00;7.25
51320;PMS5003;38732;49.556;6.286;2023-04-24T06:03:11;15.00;14.25;8.50
51320;PMS5003;38732;49.556;6.286;2023-04-24T06:05:40;12.00;11.50;6.00
51320;PMS5003;38732;49.556;6.286;2023-04-24T06:08:08;18.75;13.75;8.50
51320;PMS5003;38732;49.556;6.286;2023-04-24T06:10:37;21.00;16.25;9.75
51320;PMS5003;38732;49.556;6.286;2023-04-24T06:13:05;20.75;17.25;10.00
51320;PMS5003;38732;49.556;6.286;2023-04-24T06:15:33;8.75;8.50;4.00
51320;PMS5003;38732;49.556;6.286;2023-04-24T06:18:01;14.50;14.50;7.50
51320;PMS5003;38732;49.556;6.286;2023-04-24T06:20:30;18.75;14.00;7.25
51320;PMS5003;38732;49.556;6.286;2023-04-24T06:22:58;17.75;14.50;9.00
51320;PMS5003;38732;49.556;6.286;2023-04-24T06:25:26;15.25;13.50;9.00
51320;PMS5003;38732;49.556;6.286;2023-04-24T06:27:55;18.25;16.00;9.00
51320;PMS5003;38732;49.556;6.286;2023-04-24T06:30:23;18.50;16.25;10.00
51320;PMS5003;38732;49.556;6.286;2023-04-24T06:32:52;17.00;13.75;9.75
51320;PMS5003;38732;49.556;6.286;2023-04-24T06:35:20;22.00;20.50;10.50
51320;PMS5003;38732;49.556;6.286;2023-04-24T06:37:48;18.25;17.25;9.00
51320;PMS5003;38732;49.556;6.286;2023-04-24T06:40:16;16.00;15.50;10.00
51320;PMS5003;38732;49.556;6.286;2023-04-24T06:42:44;19.25;18.25;10.00
51320;PMS5003;38732;49.556;6.286;2023-04-24T06:45:13;19.75;16.00;9.00
51320;PMS5003;38732;49.556;6.286;2023-04-24T06:47:41;16.25;14.75;9.50
51320;PMS5003;38732;49.556;6.286;2023-04-24T06:50:09;19.75;16.25;9.75
51320;PMS5003;38732;49.556;6.286;2023-04-24T06:52:38;15.75;11.25;6.00
51320;PMS5003;38732;49.556;6.286;2023-04-24T06:55:06;22.00;19.25;12.50
51320;PMS5003;38732;49.556;6.286;2023-04-24T06:57:35;22.25;20.25;10.00
51320;PMS5003;38732;49.556;6.286;2023-04-24T07:00:04;20.75;18.00;11.25
51320;PMS5003;38732;49.556;6.286;2023-04-24T07:02:32;21.00;18.40;10.00
51320;PMS5003;38732;49.556;6.286;2023-04-24T07:05:01;18.25;13.50;6.00
51320;PMS5003;38732;49.556;6.286;2023-04-24T07:07:29;18.75;15.25;9.50
51320;PMS5003;38732;49.556;6.286;2023-04-24T07:09:57;20.50;16.25;9.25
51320;PMS5003;38732;49.556;6.286;2023-04-24T07:12:25;20.25;18.50;11.00
51320;PMS5003;38732;49.556;6.286;2023-04-24T07:14:53;15.75;15.25;9.00
51320;PMS5003;38732;49.556;6.286;2023-04-24T07:17:21;16.00;13.50;9.00
51320;PMS5003;38732;49.556;6.286;2023-04-24T07:19:50;25.25;22.75;12.25
51320;PMS5003;38732;49.556;6.286;2023-04-24T07:22:18;15.50;15.50;9.50
51320;PMS5003;38732;49.556;6.286;2023-04-24T07:24:46;24.75;23.75;11.50
51320;PMS5003;38732;49.556;6.286;2023-04-24T07:27:14;19.00;16.00;9.00
51320;PMS5003;38732;49.556;6.286;2023-04-24T07:29:42;17.00;16.00;10.50
51320;PMS5003;38732;49.556;6.286;2023-04-24T07:32:11;19.00;16.00;6.00
51320;PMS5003;38732;49.556;6.286;2023-04-24T07:34:39;18.75;18.00;9.00
51320;PMS5003;38732;49.556;6.286;2023-04-24T07:37:07;13.00;13.00;8.50
51320;PMS5003;38732;49.556;6.286;2023-04-24T07:39:36;15.50;14.75;8.00
51320;PMS5003;38732;49.556;6.286;2023-04-24T07:42:04;15.00;13.50;9.00
51320;PMS5003;38732;49.556;6.286;2023-04-24T07:44:32;17.25;16.50;10.25
51320;PMS5003;38732;49.556;6.286;2023-04-24T07:47:00;18.50;16.00;9.00
51320;PMS5003;38732;49.556;6.286;2023-04-24T07:49:29;11.00;10.50;6.50
51320;PMS5003;38732;49.556;6.286;2023-04-24T07:51:57;16.00;16.00;9.00
51320;PMS5003;38732;49.556;6.286;2023-04-24T07:54:25;18.50;17.25;9.75
51320;PMS5003;38732;49.556;6.286;2023-04-24T07:56:54;18.50;17.00;10.00
51320;PMS5003;38732;49.556;6.286;2023-04-24T07:59:22;18.75;16.25;9.00
51320;PMS5003;38732;49.556;6.286;2023-04-24T08:01:50;19.75;18.00;9.00
51320;PMS5003;38732;49.556;6.286;2023-04-24T08:04:18;17.25;16.00;9.00
51320;PMS5003;38732;49.556;6.286;2023-04-24T08:06:47;22.00;20.00;12.25
51320;PMS5003;38732;49.556;6.286;2023-04-24T08:09:15;21.25;21.25;13.50
51320;PMS5003;38732;49.556;6.286;2023-04-24T08:11:44;21.00;19.50;10.50
51320;PMS5003;38732;49.556;6.286;2023-04-24T08:14:12;17.50;16.25;11.50
51320;PMS5003;38732;49.556;6.286;2023-04-24T08:16:40;21.25;18.75;12.00
51320;PMS5003;38732;49.556;6.286;2023-04-24T08:19:09;17.75;16.75;9.00
51320;PMS5003;38732;49.556;6.286;2023-04-24T08:21:37;22.50;18.00;12.25
51320;PMS5003;38732;49.556;6.286;2023-04-24T08:24:05;22.75;18.25;11.75
51320;PMS5003;38732;49.556;6.286;2023-04-24T08:26:33;25.50;20.00;12.25
51320;PMS5003;38732;49.556;6.286;2023-04-24T08:29:02;23.25;23.25;12.00
51320;PMS5003;38732;49.556;6.286;2023-04-24T08:31:30;35.75;28.75;11.50
51320;PMS5003;38732;49.556;6.286;2023-04-24T08:33:58;24.00;21.75;12.75
51320;PMS5003;38732;49.556;6.286;2023-04-24T08:36:27;20.75;16.50;9.75
51320;PMS5003;38732;49.556;6.286;2023-04-24T08:38:55;29.25;23.75;13.00
51320;PMS5003;38732;49.556;6.286;2023-04-24T08:41:23;21.00;19.00;10.25
51320;PMS5003;38732;49.556;6.286;2023-04-24T08:43:51;22.50;20.75;13.50
51320;PMS5003;38732;49.556;6.286;2023-04-24T08:46:20;19.00;19.00;11.25
51320;PMS5003;38732;49.556;6.286;2023-04-24T08:48:50;23.80;18.60;10.00
51320;PMS5003;38732;49.556;6.286;2023-04-24T08:51:20;16.60;14.40;6.00
51320;PMS5003;38732;49.556;6.286;2023-04-24T08:53:48;22.75;21.50;13.00
51320;PMS5003;38732;49.556;6.286;2023-04-24T08:56:17;14.25;13.00;10.00
51320;PMS5003;38732;49.556;6.286;2023-04-24T08:58:45;18.50;17.50;12.25
51320;PMS5003;38732;49.556;6.286;2023-04-24T09:01:14;23.50;20.75;11.00
51320;PMS5003;38732;49.556;6.286;2023-04-24T09:03:42;24.25;20.00;10.00
51320;PMS5003;38732;49.556;6.286;2023-04-24T09:06:11;23.00;23.00;12.25
51320;PMS5003;38732;49.556;6.286;2023-04-24T09:08:39;24.25;19.75;12.00
51320;PMS5003;38732;49.556;6.286;2023-04-24T09:11:09;20.40;18.00;9.60
51320;PMS5003;38732;49.556;6.286;2023-04-24T09:13:38;25.20;21.20;13.20
51320;PMS5003;38732;49.556;6.286;2023-04-24T09:16:06;21.25;20.25;12.50
51320;PMS5003;38732;49.556;6.286;2023-04-24T09:18:34;21.50;20.00;12.50
51320;PMS5003;38732;49.556;6.286;2023-04-24T09:21:04;20.25;20.00;10.25
51320;PMS5003;38732;49.556;6.286;2023-04-24T09:23:35;18.80;16.20;7.60
51320;PMS5003;38732;49.556;6.286;2023-04-24T09:26:04;24.75;20.00;14.00
51320;PMS5003;38732;49.556;6.286;2023-04-24T09:28:34;22.50;20.75;10.50
51320;PMS5003;38732;49.556;6.286;2023-04-24T09:31:14;18.60;17.20;10.80
51320;PMS5003;38732;49.556;6.286;2023-04-24T09:34:00;23.20;17.80;11.00
51320;PMS5003;38732;49.556;6.286;2023-04-24T09:36:33;21.00;18.00;10.00
51320;PMS5003;38732;49.556;6.286;2023-04-24T09:39:12;16.00;14.60;6.40
51320;PMS5003;38732;49.556;6.286;2023-04-24T09:41:44;20.60;18.80;12.00
51320;PMS5003;38732;49.556;6.286;2023-04-24T09:44:21;20.00;17.80;12.00
51320;PMS5003;38732;49.556;6.286;2023-04-24T09:46:54;22.00;19.40;12.20
51320;PMS5003;38732;49.556;6.286;2023-04-24T09:49:24;20.80;20.40;12.40
51320;PMS5003;38732;49.556;6.286;2023-04-24T09:52:04;23.60;21.00;12.80
51320;PMS5003;38732;49.556;6.286;2023-04-24T09:54:33;24.80;22.60;14.60
51320;PMS5003;38732;49.556;6.286;2023-04-24T09:57:02;20.00;16.50;11.00
51320;PMS5003;38732;49.556;6.286;2023-04-24T09:59:30;16.75;16.25;10.00
51320;PMS5003;38732;49.556;6.286;2023-04-24T10:01:59;18.50;18.00;10.25
51320;PMS5003;38732;49.556;6.286;2023-04-24T10:04:28;24.00;21.20;13.00
51320;PMS5003;38732;49.556;6.286;2023-04-24T10:06:57;16.25;15.00;8.00
51320;PMS5003;38732;49.556;6.286;2023-04-24T10:09:26;20.50;16.50;8.50
51320;PMS5003;38732;49.556;6.286;2023-04-24T10:11:54;21.80;20.80;10.20
51320;PMS5003;38732;49.556;6.286;2023-04-24T10:14:23;18.75;15.25;9.00
51320;PMS5003;38732;49.556;6.286;2023-04-24T10:16:53;22.40;21.60;12.00
51320;PMS5003;38732;49.556;6.286;2023-04-24T10:19:22;16.80;16.20;8.20
51320;PMS5003;38732;49.556;6.286;2023-04-24T10:21:53;15.00;15.00;10.00
51320;PMS5003;38732;49.556;6.286;2023-04-24T10:24:22;21.75;21.25;14.00
51320;PMS5003;38732;49.556;6.286;2023-04-24T10:26:50;9.50;9.50;5.75
51320;PMS5003;38732;49.556;6.286;2023-04-24T10:29:20;20.20;19.60;10.80
51320;PMS5003;38732;49.556;6.286;2023-04-24T10:31:48;19.00;18.50;12.00
51320;PMS5003;38732;49.556;6.286;2023-04-24T10:34:17;22.75;18.00;12.00
51320;PMS5003;38732;49.556;6.286;2023-04-24T10:36:50;26.00;21.40;12.00
51320;PMS5003;38732;49.556;6.286;2023-04-24T10:39:20;24.20;16.20;10.40
51320;PMS5003;38732;49.556;6.286;2023-04-24T10:41:49;20.75;19.75;10.50
51320;PMS5003;38732;49.556;6.286;2023-04-24T10:44:18;23.75;20.75;13.00
51320;PMS5003;38732;49.556;6.286;2023-04-24T10:46:46;24.75;20.00;12.75
51320;PMS5003;38732;49.556;6.286;2023-04-24T10:49:29;19.00;17.80;11.00
51320;PMS5003;38732;49.556;6.286;2023-04-24T10:52:00;19.40;19.40;12.00
51320;PMS5003;38732;49.556;6.286;2023-04-24T10:54:44;20.80;17.00;10.80
51320;PMS5003;38732;49.556;6.286;2023-04-24T10:59:48;13.60;13.60;11.60
51320;PMS5003;38732;49.556;6.286;2023-04-24T11:02:18;15.00;14.80;11.00
51320;PMS5003;38732;49.556;6.286;2023-04-24T11:05:03;17.80;16.60;9.80
51320;PMS5003;38732;49.556;6.286;2023-04-24T11:10:54;23.80;18.60;11.00
51320;PMS5003;38732;49.556;6.286;2023-04-24T11:13:23;21.40;16.40;11.00
51320;PMS5003;38732;49.556;6.286;2023-04-24T11:18:44;17.80;16.80;12.00
51320;PMS5003;38732;49.556;6.286;2023-04-24T11:21:12;22.00;19.80;12.40
51320;PMS5003;38732;49.556;6.286;2023-04-24T11:23:41;14.00;12.75;6.75
51320;PMS5003;38732;49.556;6.286;2023-04-24T11:26:09;22.50;20.00;12.50
51320;PMS5003;38732;49.556;6.286;2023-04-24T11:28:48;18.40;16.80;11.20
51320;PMS5003;38732;49.556;6.286;2023-04-24T11:34:12;24.80;20.00;12.00
51320;PMS5003;38732;49.556;6.286;2023-04-24T11:36:42;19.00;18.60;11.00
51320;PMS5003;38732;49.556;6.286;2023-04-24T11:39:12;20.20;17.20;11.60
51320;PMS5003;38732;49.556;6.286;2023-04-24T11:41:41;18.00;18.00;11.20
51320;PMS5003;38732;49.556;6.286;2023-04-24T11:44:09;21.00;20.00;11.50
51320;PMS5003;38732;49.556;6.286;2023-04-24T11:46:37;21.50;18.25;11.00
51320;PMS5003;38732;49.556;6.286;2023-04-24T11:49:05;17.75;16.50;11.25
51320;PMS5003;38732;49.556;6.286;2023-04-24T11:51:34;17.25;17.25;10.50
51320;PMS5003;38732;49.556;6.286;2023-04-24T11:54:07;22.75;17.75;9.00
51320;PMS5003;38732;49.556;6.286;2023-04-24T11:56:35;15.00;15.00;8.80
51320;PMS5003;38732;49.556;6.286;2023-04-24T11:59:04;16.75;16.75;9.00
51320;PMS5003;38732;49.556;6.286;2023-04-24T12:01:42;16.00;13.25;9.00
51320;PMS5003;38732;49.556;6.286;2023-04-24T12:04:17;16.60;15.00;10.20
51320;PMS5003;38732;49.556;6.286;2023-04-24T12:07:01;12.60;11.20;4.80
51320;PMS5003;38732;49.556;6.286;2023-04-24T12:12:10;14.40;10.60;6.40
51320;PMS5003;38732;49.556;6.286;2023-04-24T12:15:06;16.80;15.60;10.00
51320;PMS5003;38732;49.556;6.286;2023-04-24T12:17:35;18.20;12.00;9.60
51320;PMS5003;38732;49.556;6.286;2023-04-24T12:20:04;16.00;14.50;8.00
51320;PMS5003;38732;49.556;6.286;2023-04-24T12:22:50;17.00;14.80;9.00
51320;PMS5003;38732;49.556;6.286;2023-04-24T12:25:23;16.80;12.80;7.00
51320;PMS5003;38732;49.556;6.286;2023-04-24T12:30:38;16.00;16.00;8.80
51320;PMS5003;38732;49.556;6.286;2023-04-24T12:33:18;16.20;12.60;9.20
51320;PMS5003;38732;49.556;6.286;2023-04-24T12:35:48;19.40;19.40;11.20
51320;PMS5003;38732;49.556;6.286;2023-04-24T12:38:21;20.40;19.60;11.40
51320;PMS5003;38732;49.556;6.286;2023-04-24T12:41:01;18.80;15.00;9.00
51320;PMS5003;38732;49.556;6.286;2023-04-24T12:43:30;22.20;20.00;13.60
